sensor_id;sensor_type;location;lat;lon;timestamp;P1;durP1;ratioP1;P2;durP2;ratioP2
72319;SDS011;60269;52.502;16.732;2024-03-25T00:00:34;7.28;;;2.50;;
72319;SDS011;60269;52.502;16.732;2024-03-25T00:04:25;7.60;;;2.47;;
72319;SDS011;60269;52.502;16.732;2024-03-25T00:07:56;9.52;;;2.53;;
72319;SDS011;60269;52.502;16.732;2024-03-25T00:11:27;8.75;;;3.05;;
72319;SDS011;60269;52.502;16.732;2024-03-25T00:14:58;8.10;;;2.63;;
72319;SDS011;60269;52.502;16.732;2024-03-25T00:18:29;9.65;;;2.70;;
72319;SDS011;60269;52.502;16.732;2024-03-25T00:22:00;7.63;;;2.03;;
72319;SDS011;60269;52.502;16.732;2024-03-25T00:25:30;7.82;;;2.00;;
72319;SDS011;60269;52.502;16.732;2024-03-25T00:29:01;8.70;;;2.60;;
72319;SDS011;60269;52.502;16.732;2024-03-25T00:32:32;7.35;;;2.28;;
72319;SDS011;60269;52.502;16.732;2024-03-25T00:36:03;9.73;;;2.67;;
72319;SDS011;60269;52.502;16.732;2024-03-25T00:39:35;7.35;;;2.10;;
72319;SDS011;60269;52.502;16.732;2024-03-25T00:43:06;7.35;;;2.35;;
72319;SDS011;60269;52.502;16.732;2024-03-25T00:46:37;8.70;;;2.70;;
72319;SDS011;60269;52.502;16.732;2024-03-25T00:50:08;7.40;;;2.40;;
72319;SDS011;60269;52.502;16.732;2024-03-25T00:53:39;8.23;;;2.15;;
72319;SDS011;60269;52.502;16.732;2024-03-25T00:57:19;10.27;;;2.73;;
72319;SDS011;60269;52.502;16.732;2024-03-25T01:00:50;9.10;;;2.60;;
72319;SDS011;60269;52.502;16.732;2024-03-25T01:04:25;6.80;;;2.22;;
72319;SDS011;60269;52.502;16.732;2024-03-25T01:07:55;8.37;;;2.33;;
72319;SDS011;60269;52.502;16.732;2024-03-25T01:11:26;8.15;;;2.60;;
72319;SDS011;60269;52.502;16.732;2024-03-25T01:14:57;11.03;;;2.70;;
72319;SDS011;60269;52.502;16.732;2024-03-25T01:18:28;9.10;;;2.67;;
72319;SDS011;60269;52.502;16.732;2024-03-25T01:21:59;8.50;;;2.50;;
72319;SDS011;60269;52.502;16.732;2024-03-25T01:25:30;8.23;;;2.03;;
72319;SDS011;60269;52.502;16.732;2024-03-25T01:29:01;8.55;;;2.33;;
72319;SDS011;60269;52.502;16.732;2024-03-25T01:32:32;7.15;;;2.15;;
72319;SDS011;60269;52.502;16.732;2024-03-25T01:36:03;8.37;;;2.67;;
72319;SDS011;60269;52.502;16.732;2024-03-25T01:39:34;7.22;;;2.58;;
72319;SDS011;60269;52.502;16.732;2024-03-25T01:43:05;8.77;;;1.73;;
72319;SDS011;60269;52.502;16.732;2024-03-25T01:46:36;10.23;;;3.47;;
72319;SDS011;60269;52.502;16.732;2024-03-25T01:50:07;8.55;;;2.50;;
72319;SDS011;60269;52.502;16.732;2024-03-25T01:53:38;8.10;;;1.70;;
72319;SDS011;60269;52.502;16.732;2024-03-25T01:57:09;8.98;;;2.28;;
72319;SDS011;60269;52.502;16.732;2024-03-25T02:00:40;9.52;;;2.20;;
72319;SDS011;60269;52.502;16.732;2024-03-25T02:04:13;7.78;;;1.73;;
72319;SDS011;60269;52.502;16.732;2024-03-25T02:07:45;7.90;;;2.30;;
72319;SDS011;60269;52.502;16.732;2024-03-25T02:11:17;7.30;;;2.35;;
72319;SDS011;60269;52.502;16.732;2024-03-25T02:14:49;8.18;;;2.72;;
72319;SDS011;60269;52.502;16.732;2024-03-25T02:18:20;8.30;;;2.17;;
72319;SDS011;60269;52.502;16.732;2024-03-25T02:21:51;6.18;;;1.77;;
72319;SDS011;60269;52.502;16.732;2024-03-25T02:25:22;7.40;;;2.13;;
72319;SDS011;60269;52.502;16.732;2024-03-25T02:28:54;7.83;;;2.30;;
72319;SDS011;60269;52.502;16.732;2024-03-25T02:32:25;9.23;;;2.20;;
72319;SDS011;60269;52.502;16.732;2024-03-25T02:35:56;7.72;;;1.98;;
72319;SDS011;60269;52.502;16.732;2024-03-25T02:39:27;7.53;;;2.20;;
72319;SDS011;60269;52.502;16.732;2024-03-25T02:42:58;10.27;;;2.50;;
72319;SDS011;60269;52.502;16.732;2024-03-25T02:46:29;8.48;;;2.75;;
72319;SDS011;60269;52.502;16.732;2024-03-25T02:50:00;7.80;;;2.40;;
72319;SDS011;60269;52.502;16.732;2024-03-25T02:53:31;7.63;;;2.53;;
72319;SDS011;60269;52.502;16.732;2024-03-25T02:57:02;7.97;;;2.33;;
72319;SDS011;60269;52.502;16.732;2024-03-25T03:00:32;9.57;;;2.87;;
72319;SDS011;60269;52.502;16.732;2024-03-25T03:04:03;7.18;;;2.20;;
72319;SDS011;60269;52.502;16.732;2024-03-25T03:07:34;9.30;;;2.67;;
72319;SDS011;60269;52.502;16.732;2024-03-25T03:11:05;8.90;;;3.08;;
72319;SDS011;60269;52.502;16.732;2024-03-25T03:14:36;9.27;;;2.87;;
72319;SDS011;60269;52.502;16.732;2024-03-25T03:18:07;10.15;;;2.67;;
72319;SDS011;60269;52.502;16.732;2024-03-25T03:21:38;11.32;;;2.83;;
72319;SDS011;60269;52.502;16.732;2024-03-25T03:25:08;11.13;;;3.00;;
72319;SDS011;60269;52.502;16.732;2024-03-25T03:28:40;9.95;;;2.95;;
72319;SDS011;60269;52.502;16.732;2024-03-25T03:32:11;8.98;;;3.38;;
72319;SDS011;60269;52.502;16.732;2024-03-25T03:35:42;9.07;;;3.20;;
72319;SDS011;60269;52.502;16.732;2024-03-25T03:39:13;9.05;;;3.30;;
72319;SDS011;60269;52.502;16.732;2024-03-25T03:42:45;8.70;;;3.25;;
72319;SDS011;60269;52.502;16.732;2024-03-25T03:46:16;9.67;;;3.13;;
72319;SDS011;60269;52.502;16.732;2024-03-25T03:49:47;10.13;;;3.40;;
72319;SDS011;60269;52.502;16.732;2024-03-25T03:53:18;9.00;;;3.13;;
72319;SDS011;60269;52.502;16.732;2024-03-25T03:56:49;13.30;;;4.10;;
72319;SDS011;60269;52.502;16.732;2024-03-25T04:00:20;9.25;;;3.40;;
72319;SDS011;60269;52.502;16.732;2024-03-25T04:03:51;10.15;;;3.35;;
72319;SDS011;60269;52.502;16.732;2024-03-25T04:07:22;9.57;;;3.83;;
72319;SDS011;60269;52.502;16.732;2024-03-25T04:11:01;8.50;;;3.00;;
72319;SDS011;60269;52.502;16.732;2024-03-25T04:14:33;12.25;;;4.18;;
72319;SDS011;60269;52.502;16.732;2024-03-25T04:18:04;9.85;;;3.60;;
72319;SDS011;60269;52.502;16.732;2024-03-25T04:21:35;11.50;;;3.83;;
72319;SDS011;60269;52.502;16.732;2024-03-25T04:25:06;12.93;;;3.47;;
72319;SDS011;60269;52.502;16.732;2024-03-25T04:28:38;10.57;;;3.85;;
72319;SDS011;60269;52.502;16.732;2024-03-25T04:32:09;10.57;;;3.70;;
72319;SDS011;60269;52.502;16.732;2024-03-25T04:35:40;10.68;;;3.30;;
72319;SDS011;60269;52.502;16.732;2024-03-25T04:39:12;11.32;;;3.30;;
72319;SDS011;60269;52.502;16.732;2024-03-25T04:42:43;8.57;;;2.60;;
72319;SDS011;60269;52.502;16.732;2024-03-25T04:46:13;7.67;;;2.33;;
72319;SDS011;60269;52.502;16.732;2024-03-25T04:49:44;8.90;;;2.65;;
72319;SDS011;60269;52.502;16.732;2024-03-25T04:53:16;8.20;;;2.30;;
72319;SDS011;60269;52.502;16.732;2024-03-25T04:56:47;9.82;;;2.67;;
72319;SDS011;60269;52.502;16.732;2024-03-25T05:00:18;9.85;;;2.47;;
72319;SDS011;60269;52.502;16.732;2024-03-25T05:03:49;7.33;;;2.30;;
72319;SDS011;60269;52.502;16.732;2024-03-25T05:07:20;10.43;;;2.50;;
72319;SDS011;60269;52.502;16.732;2024-03-25T05:10:51;7.65;;;2.08;;
72319;SDS011;60269;52.502;16.732;2024-03-25T05:14:22;8.50;;;2.50;;
72319;SDS011;60269;52.502;16.732;2024-03-25T05:17:52;8.48;;;2.45;;
72319;SDS011;60269;52.502;16.732;2024-03-25T05:21:23;8.03;;;2.90;;
72319;SDS011;60269;52.502;16.732;2024-03-25T05:24:54;8.13;;;2.53;;
72319;SDS011;60269;52.502;16.732;2024-03-25T05:28:25;8.43;;;2.20;;
72319;SDS011;60269;52.502;16.732;2024-03-25T05:31:57;8.00;;;2.28;;
72319;SDS011;60269;52.502;16.732;2024-03-25T05:35:29;8.43;;;2.33;;
72319;SDS011;60269;52.502;16.732;2024-03-25T05:39:01;7.25;;;2.30;;
72319;SDS011;60269;52.502;16.732;2024-03-25T05:42:32;8.83;;;2.13;;
72319;SDS011;60269;52.502;16.732;2024-03-25T05:46:04;11.02;;;2.50;;
72319;SDS011;60269;52.502;16.732;2024-03-25T05:49:35;9.63;;;2.65;;
72319;SDS011;60269;52.502;16.732;2024-03-25T05:53:06;10.40;;;3.23;;
72319;SDS011;60269;52.502;16.732;2024-03-25T05:56:36;11.45;;;3.05;;
72319;SDS011;60269;52.502;16.732;2024-03-25T06:00:08;10.57;;;3.05;;
72319;SDS011;60269;52.502;16.732;2024-03-25T06:03:42;8.83;;;2.80;;
72319;SDS011;60269;52.502;16.732;2024-03-25T06:07:13;9.23;;;3.28;;
72319;SDS011;60269;52.502;16.732;2024-03-25T06:10:44;9.77;;;3.40;;
72319;SDS011;60269;52.502;16.732;2024-03-25T06:14:15;11.93;;;3.70;;
72319;SDS011;60269;52.502;16.732;2024-03-25T06:17:47;11.35;;;4.13;;
72319;SDS011;60269;52.502;16.732;2024-03-25T06:21:17;14.20;;;4.50;;
72319;SDS011;60269;52.502;16.732;2024-03-25T06:24:48;13.98;;;5.15;;
72319;SDS011;60269;52.502;16.732;2024-03-25T06:28:21;14.63;;;5.07;;
72319;SDS011;60269;52.502;16.732;2024-03-25T06:31:52;16.23;;;6.53;;
72319;SDS011;60269;52.502;16.732;2024-03-25T06:35:42;14.40;;;6.03;;
72319;SDS011;60269;52.502;16.732;2024-03-25T06:39:16;16.63;;;6.75;;
72319;SDS011;60269;52.502;16.732;2024-03-25T06:42:47;16.55;;;6.47;;
72319;SDS011;60269;52.502;16.732;2024-03-25T06:46:18;15.73;;;6.33;;
72319;SDS011;60269;52.502;16.732;2024-03-25T06:49:49;14.95;;;5.95;;
72319;SDS011;60269;52.502;16.732;2024-03-25T06:53:20;16.15;;;5.88;;
72319;SDS011;60269;52.502;16.732;2024-03-25T06:56:51;13.57;;;5.57;;
72319;SDS011;60269;52.502;16.732;2024-03-25T07:00:22;13.70;;;5.60;;
72319;SDS011;60269;52.502;16.732;2024-03-25T07:03:53;17.30;;;5.82;;
72319;SDS011;60269;52.502;16.732;2024-03-25T07:07:24;13.97;;;5.03;;
72319;SDS011;60269;52.502;16.732;2024-03-25T07:10:56;16.02;;;6.32;;
72319;SDS011;60269;52.502;16.732;2024-03-25T07:14:27;15.77;;;5.60;;
72319;SDS011;60269;52.502;16.732;2024-03-25T07:17:58;12.70;;;5.50;;
72319;SDS011;60269;52.502;16.732;2024-03-25T07:21:30;13.40;;;5.70;;
72319;SDS011;60269;52.502;16.732;2024-03-25T07:25:01;14.18;;;5.57;;
72319;SDS011;60269;52.502;16.732;2024-03-25T07:28:32;15.45;;;5.57;;
72319;SDS011;60269;52.502;16.732;2024-03-25T07:32:03;14.23;;;5.20;;
72319;SDS011;60269;52.502;16.732;2024-03-25T07:35:35;14.80;;;5.53;;
72319;SDS011;60269;52.502;16.732;2024-03-25T07:39:06;15.27;;;5.38;;
72319;SDS011;60269;52.502;16.732;2024-03-25T07:42:38;14.27;;;4.93;;
72319;SDS011;60269;52.502;16.732;2024-03-25T07:46:09;13.35;;;5.55;;
72319;SDS011;60269;52.502;16.732;2024-03-25T07:49:40;16.75;;;5.72;;
72319;SDS011;60269;52.502;16.732;2024-03-25T07:53:11;18.00;;;6.40;;
72319;SDS011;60269;52.502;16.732;2024-03-25T07:56:43;16.27;;;6.10;;
72319;SDS011;60269;52.502;16.732;2024-03-25T08:00:14;15.40;;;6.25;;
72319;SDS011;60269;52.502;16.732;2024-03-25T08:03:45;13.43;;;4.85;;
72319;SDS011;60269;52.502;16.732;2024-03-25T08:07:16;13.40;;;4.60;;
72319;SDS011;60269;52.502;16.732;2024-03-25T08:10:47;12.10;;;4.63;;
72319;SDS011;60269;52.502;16.732;2024-03-25T08:14:18;9.65;;;2.88;;
72319;SDS011;60269;52.502;16.732;2024-03-25T08:17:49;8.37;;;2.10;;
72319;SDS011;60269;52.502;16.732;2024-03-25T08:21:20;8.63;;;2.20;;
72319;SDS011;60269;52.502;16.732;2024-03-25T08:24:51;7.10;;;1.80;;
72319;SDS011;60269;52.502;16.732;2024-03-25T08:28:22;8.40;;;2.73;;
72319;SDS011;60269;52.502;16.732;2024-03-25T08:31:53;8.75;;;2.55;;
72319;SDS011;60269;52.502;16.732;2024-03-25T08:35:24;9.35;;;2.75;;
72319;SDS011;60269;52.502;16.732;2024-03-25T08:38:55;8.00;;;2.20;;
72319;SDS011;60269;52.502;16.732;2024-03-25T08:42:26;13.63;;;3.50;;
72319;SDS011;60269;52.502;16.732;2024-03-25T08:45:57;11.55;;;3.40;;
72319;SDS011;60269;52.502;16.732;2024-03-25T08:49:28;9.00;;;2.60;;
72319;SDS011;60269;52.502;16.732;2024-03-25T08:52:59;8.27;;;2.37;;
72319;SDS011;60269;52.502;16.732;2024-03-25T08:56:30;7.43;;;1.95;;
72319;SDS011;60269;52.502;16.732;2024-03-25T09:00:02;7.03;;;2.00;;
72319;SDS011;60269;52.502;16.732;2024-03-25T09:03:34;8.07;;;2.43;;
72319;SDS011;60269;52.502;16.732;2024-03-25T09:07:05;7.97;;;2.30;;
72319;SDS011;60269;52.502;16.732;2024-03-25T09:10:36;9.75;;;2.60;;
72319;SDS011;60269;52.502;16.732;2024-03-25T09:14:26;8.50;;;2.73;;
72319;SDS011;60269;52.502;16.732;2024-03-25T09:17:57;12.05;;;3.63;;
72319;SDS011;60269;52.502;16.732;2024-03-25T09:21:28;9.32;;;3.40;;
72319;SDS011;60269;52.502;16.732;2024-03-25T09:25:00;8.73;;;2.85;;
72319;SDS011;60269;52.502;16.732;2024-03-25T09:28:31;9.40;;;3.17;;
72319;SDS011;60269;52.502;16.732;2024-03-25T09:32:02;9.48;;;3.28;;
72319;SDS011;60269;52.502;16.732;2024-03-25T09:35:33;8.27;;;2.70;;
72319;SDS011;60269;52.502;16.732;2024-03-25T09:39:04;9.85;;;3.35;;
72319;SDS011;60269;52.502;16.732;2024-03-25T09:46:20;12.00;;;4.20;;
72319;SDS011;60269;52.502;16.732;2024-03-25T09:49:53;8.88;;;3.55;;
72319;SDS011;60269;52.502;16.732;2024-03-25T09:53:25;9.38;;;3.55;;
72319;SDS011;60269;52.502;16.732;2024-03-25T09:56:56;10.13;;;3.83;;
72319;SDS011;60269;52.502;16.732;2024-03-25T10:00:27;9.37;;;4.23;;
72319;SDS011;60269;52.502;16.732;2024-03-25T10:03:59;11.98;;;4.22;;
72319;SDS011;60269;52.502;16.732;2024-03-25T10:07:30;9.60;;;3.58;;
72319;SDS011;60269;52.502;16.732;2024-03-25T10:11:01;7.93;;;3.27;;
72319;SDS011;60269;52.502;16.732;2024-03-25T10:14:33;7.82;;;2.90;;
72319;SDS011;60269;52.502;16.732;2024-03-25T10:18:04;8.55;;;2.85;;
72319;SDS011;60269;52.502;16.732;2024-03-25T10:21:35;7.97;;;3.07;;
72319;SDS011;60269;52.502;16.732;2024-03-25T10:25:06;6.20;;;2.03;;
72319;SDS011;60269;52.502;16.732;2024-03-25T10:28:38;6.80;;;2.70;;
72319;SDS011;60269;52.502;16.732;2024-03-25T10:32:09;6.23;;;1.97;;
72319;SDS011;60269;52.502;16.732;2024-03-25T10:35:40;5.67;;;1.73;;
72319;SDS011;60269;52.502;16.732;2024-03-25T10:39:15;5.25;;;1.60;;
72319;SDS011;60269;52.502;16.732;2024-03-25T10:42:47;4.37;;;1.33;;
72319;SDS011;60269;52.502;16.732;2024-03-25T10:46:19;4.38;;;1.20;;
72319;SDS011;60269;52.502;16.732;2024-03-25T10:49:56;4.82;;;1.30;;
72319;SDS011;60269;52.502;16.732;2024-03-25T10:53:28;4.80;;;1.40;;
72319;SDS011;60269;52.502;16.732;2024-03-25T10:57:00;4.90;;;1.40;;
72319;SDS011;60269;52.502;16.732;2024-03-25T11:00:34;5.45;;;1.40;;
72319;SDS011;60269;52.502;16.732;2024-03-25T11:04:07;5.50;;;1.52;;
72319;SDS011;60269;52.502;16.732;2024-03-25T11:07:38;4.80;;;1.60;;
72319;SDS011;60269;52.502;16.732;2024-03-25T11:11:10;4.35;;;1.05;;
72319;SDS011;60269;52.502;16.732;2024-03-25T11:14:41;5.43;;;1.45;;
72319;SDS011;60269;52.502;16.732;2024-03-25T11:18:16;4.80;;;1.20;;
72319;SDS011;60269;52.502;16.732;2024-03-25T11:21:48;5.78;;;1.60;;
72319;SDS011;60269;52.502;16.732;2024-03-25T11:25:22;6.43;;;2.08;;
72319;SDS011;60269;52.502;16.732;2024-03-25T11:28:53;5.47;;;1.47;;
72319;SDS011;60269;52.502;16.732;2024-03-25T11:32:24;6.95;;;1.60;;
72319;SDS011;60269;52.502;16.732;2024-03-25T11:35:57;4.93;;;1.30;;
72319;SDS011;60269;52.502;16.732;2024-03-25T11:39:28;5.15;;;0.93;;
72319;SDS011;60269;52.502;16.732;2024-03-25T11:43:02;4.80;;;1.40;;
72319;SDS011;60269;52.502;16.732;2024-03-25T11:46:35;5.70;;;1.40;;
72319;SDS011;60269;52.502;16.732;2024-03-25T11:50:08;6.68;;;1.25;;
72319;SDS011;60269;52.502;16.732;2024-03-25T11:53:40;5.57;;;1.40;;
72319;SDS011;60269;52.502;16.732;2024-03-25T11:57:11;5.75;;;1.42;;
72319;SDS011;60269;52.502;16.732;2024-03-25T12:00:43;6.57;;;1.92;;
72319;SDS011;60269;52.502;16.732;2024-03-25T12:04:19;7.27;;;2.00;;
72319;SDS011;60269;52.502;16.732;2024-03-25T12:07:52;7.05;;;2.13;;
72319;SDS011;60269;52.502;16.732;2024-03-25T12:11:23;6.25;;;2.03;;
72319;SDS011;60269;52.502;16.732;2024-03-25T12:14:54;7.70;;;2.97;;
72319;SDS011;60269;52.502;16.732;2024-03-25T12:18:26;7.20;;;2.05;;
72319;SDS011;60269;52.502;16.732;2024-03-25T12:22:00;7.00;;;2.25;;
72319;SDS011;60269;52.502;16.732;2024-03-25T12:25:31;6.70;;;2.17;;
72319;SDS011;60269;52.502;16.732;2024-03-25T12:29:02;5.05;;;1.70;;
72319;SDS011;60269;52.502;16.732;2024-03-25T12:32:38;5.30;;;1.40;;
72319;SDS011;60269;52.502;16.732;2024-03-25T12:36:12;4.50;;;1.20;;
72319;SDS011;60269;52.502;16.732;2024-03-25T12:39:49;5.75;;;1.42;;
72319;SDS011;60269;52.502;16.732;2024-03-25T12:43:20;5.88;;;1.20;;
72319;SDS011;60269;52.502;16.732;2024-03-25T12:46:51;5.10;;;1.33;;
72319;SDS011;60269;52.502;16.732;2024-03-25T12:50:22;5.10;;;1.35;;
72319;SDS011;60269;52.502;16.732;2024-03-25T12:53:54;5.03;;;1.17;;
72319;SDS011;60269;52.502;16.732;2024-03-25T12:57:27;5.65;;;1.50;;
72319;SDS011;60269;52.502;16.732;2024-03-25T13:00:58;7.03;;;1.80;;
72319;SDS011;60269;52.502;16.732;2024-03-25T13:04:29;6.40;;;1.75;;
72319;SDS011;60269;52.502;16.732;2024-03-25T13:08:00;6.93;;;2.15;;
72319;SDS011;60269;52.502;16.732;2024-03-25T13:11:32;6.70;;;1.87;;
72319;SDS011;60269;52.502;16.732;2024-03-25T13:15:03;8.70;;;2.55;;
72319;SDS011;60269;52.502;16.732;2024-03-25T13:18:35;6.75;;;1.95;;
72319;SDS011;60269;52.502;16.732;2024-03-25T13:22:05;6.10;;;1.40;;
72319;SDS011;60269;52.502;16.732;2024-03-25T13:25:36;5.07;;;1.00;;
72319;SDS011;60269;52.502;16.732;2024-03-25T13:29:07;4.35;;;1.17;;
72319;SDS011;60269;52.502;16.732;2024-03-25T13:32:39;5.00;;;1.52;;
72319;SDS011;60269;52.502;16.732;2024-03-25T13:36:10;5.50;;;1.30;;
72319;SDS011;60269;52.502;16.732;2024-03-25T13:39:40;5.32;;;1.23;;
72319;SDS011;60269;52.502;16.732;2024-03-25T13:43:11;5.85;;;1.40;;
72319;SDS011;60269;52.502;16.732;2024-03-25T13:46:42;5.07;;;1.60;;
72319;SDS011;60269;52.502;16.732;2024-03-25T13:50:13;4.90;;;1.30;;
72319;SDS011;60269;52.502;16.732;2024-03-25T13:53:44;5.57;;;1.73;;
72319;SDS011;60269;52.502;16.732;2024-03-25T13:57:15;5.00;;;1.10;;
72319;SDS011;60269;52.502;16.732;2024-03-25T14:00:46;4.50;;;1.23;;
72319;SDS011;60269;52.502;16.732;2024-03-25T14:04:17;4.88;;;1.13;;
72319;SDS011;60269;52.502;16.732;2024-03-25T14:07:51;4.93;;;1.30;;
72319;SDS011;60269;52.502;16.732;2024-03-25T14:11:23;4.53;;;1.40;;
72319;SDS011;60269;52.502;16.732;2024-03-25T14:14:54;4.90;;;2.13;;
72319;SDS011;60269;52.502;16.732;2024-03-25T14:18:25;5.03;;;1.90;;
72319;SDS011;60269;52.502;16.732;2024-03-25T14:21:56;5.27;;;1.30;;
72319;SDS011;60269;52.502;16.732;2024-03-25T14:25:28;6.85;;;1.50;;
72319;SDS011;60269;52.502;16.732;2024-03-25T14:28:59;5.03;;;1.50;;
72319;SDS011;60269;52.502;16.732;2024-03-25T14:32:33;7.95;;;1.92;;
72319;SDS011;60269;52.502;16.732;2024-03-25T14:36:04;6.07;;;1.83;;
72319;SDS011;60269;52.502;16.732;2024-03-25T14:39:35;8.97;;;1.83;;
72319;SDS011;60269;52.502;16.732;2024-03-25T14:43:07;7.18;;;1.80;;
72319;SDS011;60269;52.502;16.732;2024-03-25T14:46:38;7.63;;;2.33;;
72319;SDS011;60269;52.502;16.732;2024-03-25T14:50:09;5.30;;;1.55;;
72319;SDS011;60269;52.502;16.732;2024-03-25T14:53:40;5.93;;;1.63;;
72319;SDS011;60269;52.502;16.732;2024-03-25T14:57:11;5.90;;;1.60;;
72319;SDS011;60269;52.502;16.732;2024-03-25T15:00:43;6.38;;;1.48;;
72319;SDS011;60269;52.502;16.732;2024-03-25T15:04:14;5.73;;;1.30;;
72319;SDS011;60269;52.502;16.732;2024-03-25T15:07:45;5.63;;;1.40;;
72319;SDS011;60269;52.502;16.732;2024-03-25T15:11:16;6.70;;;1.40;;
72319;SDS011;60269;52.502;16.732;2024-03-25T15:14:47;6.97;;;1.50;;
72319;SDS011;60269;52.502;16.732;2024-03-25T15:18:18;4.95;;;1.23;;
72319;SDS011;60269;52.502;16.732;2024-03-25T15:21:49;6.78;;;1.52;;
72319;SDS011;60269;52.502;16.732;2024-03-25T15:25:20;5.57;;;1.27;;
72319;SDS011;60269;52.502;16.732;2024-03-25T15:28:54;7.20;;;1.30;;
72319;SDS011;60269;52.502;16.732;2024-03-25T15:32:25;7.63;;;1.40;;
72319;SDS011;60269;52.502;16.732;2024-03-25T15:35:56;5.13;;;1.00;;
72319;SDS011;60269;52.502;16.732;2024-03-25T15:39:27;4.75;;;1.27;;
72319;SDS011;60269;52.502;16.732;2024-03-25T15:42:59;6.05;;;1.50;;
72319;SDS011;60269;52.502;16.732;2024-03-25T15:46:33;6.13;;;1.27;;
72319;SDS011;60269;52.502;16.732;2024-03-25T15:50:04;5.63;;;1.20;;
72319;SDS011;60269;52.502;16.732;2024-03-25T15:53:36;5.25;;;1.17;;
72319;SDS011;60269;52.502;16.732;2024-03-25T15:57:08;4.60;;;1.00;;
72319;SDS011;60269;52.502;16.732;2024-03-25T16:00:39;5.10;;;1.20;;
72319;SDS011;60269;52.502;16.732;2024-03-25T16:04:10;5.82;;;1.23;;
72319;SDS011;60269;52.502;16.732;2024-03-25T16:07:42;10.73;;;1.60;;
72319;SDS011;60269;52.502;16.732;2024-03-25T16:11:17;6.88;;;1.30;;
72319;SDS011;60269;52.502;16.732;2024-03-25T16:14:48;4.40;;;0.90;;
72319;SDS011;60269;52.502;16.732;2024-03-25T16:18:19;5.07;;;0.90;;
72319;SDS011;60269;52.502;16.732;2024-03-25T16:21:50;4.70;;;0.90;;
72319;SDS011;60269;52.502;16.732;2024-03-25T16:25:21;8.63;;;1.48;;
72319;SDS011;60269;52.502;16.732;2024-03-25T16:28:54;6.27;;;1.17;;
72319;SDS011;60269;52.502;16.732;2024-03-25T16:32:31;9.00;;;1.67;;
72319;SDS011;60269;52.502;16.732;2024-03-25T16:36:06;5.25;;;1.27;;
72319;SDS011;60269;52.502;16.732;2024-03-25T16:39:38;6.77;;;1.10;;
72319;SDS011;60269;52.502;16.732;2024-03-25T16:43:10;5.22;;;1.05;;
72319;SDS011;60269;52.502;16.732;2024-03-25T16:46:41;5.18;;;1.10;;
72319;SDS011;60269;52.502;16.732;2024-03-25T16:50:12;6.40;;;1.42;;
72319;SDS011;60269;52.502;16.732;2024-03-25T16:53:43;9.83;;;3.00;;
72319;SDS011;60269;52.502;16.732;2024-03-25T16:57:14;10.27;;;3.13;;
72319;SDS011;60269;52.502;16.732;2024-03-25T17:00:45;9.00;;;2.33;;
72319;SDS011;60269;52.502;16.732;2024-03-25T17:04:20;5.80;;;1.33;;
72319;SDS011;60269;52.502;16.732;2024-03-25T17:07:51;8.95;;;1.90;;
72319;SDS011;60269;52.502;16.732;2024-03-25T17:11:22;7.18;;;1.67;;
72319;SDS011;60269;52.502;16.732;2024-03-25T17:14:54;8.20;;;2.10;;
72319;SDS011;60269;52.502;16.732;2024-03-25T17:18:25;6.82;;;1.75;;
72319;SDS011;60269;52.502;16.732;2024-03-25T17:21:56;10.07;;;1.55;;
72319;SDS011;60269;52.502;16.732;2024-03-25T17:25:27;6.90;;;1.58;;
72319;SDS011;60269;52.502;16.732;2024-03-25T17:29:00;5.73;;;1.27;;
72319;SDS011;60269;52.502;16.732;2024-03-25T17:32:32;8.80;;;1.60;;
72319;SDS011;60269;52.502;16.732;2024-03-25T17:36:03;11.20;;;3.17;;
72319;SDS011;60269;52.502;16.732;2024-03-25T17:39:35;13.77;;;4.23;;
72319;SDS011;60269;52.502;16.732;2024-03-25T17:43:06;10.82;;;3.00;;
72319;SDS011;60269;52.502;16.732;2024-03-25T17:46:37;9.13;;;2.50;;
72319;SDS011;60269;52.502;16.732;2024-03-25T17:50:08;6.50;;;1.70;;
72319;SDS011;60269;52.502;16.732;2024-03-25T17:53:41;6.70;;;1.48;;
72319;SDS011;60269;52.502;16.732;2024-03-25T17:57:13;6.53;;;1.40;;
72319;SDS011;60269;52.502;16.732;2024-03-25T18:00:45;7.10;;;1.85;;
72319;SDS011;60269;52.502;16.732;2024-03-25T18:04:15;6.80;;;2.03;;
72319;SDS011;60269;52.502;16.732;2024-03-25T18:07:46;8.07;;;2.25;;
72319;SDS011;60269;52.502;16.732;2024-03-25T18:11:18;10.33;;;2.23;;
72319;SDS011;60269;52.502;16.732;2024-03-25T18:14:49;7.93;;;2.15;;
72319;SDS011;60269;52.502;16.732;2024-03-25T18:18:20;9.65;;;2.83;;
72319;SDS011;60269;52.502;16.732;2024-03-25T18:21:52;9.95;;;3.28;;
72319;SDS011;60269;52.502;16.732;2024-03-25T18:25:23;9.77;;;3.50;;
72319;SDS011;60269;52.502;16.732;2024-03-25T18:28:54;14.15;;;4.10;;
72319;SDS011;60269;52.502;16.732;2024-03-25T18:32:25;11.05;;;4.03;;
72319;SDS011;60269;52.502;16.732;2024-03-25T18:35:59;12.93;;;3.80;;
72319;SDS011;60269;52.502;16.732;2024-03-25T18:39:32;10.13;;;3.17;;
72319;SDS011;60269;52.502;16.732;2024-03-25T18:43:04;10.68;;;3.78;;
72319;SDS011;60269;52.502;16.732;2024-03-25T18:46:35;11.10;;;4.10;;
72319;SDS011;60269;52.502;16.732;2024-03-25T18:50:06;11.20;;;3.60;;
72319;SDS011;60269;52.502;16.732;2024-03-25T18:53:37;10.13;;;3.50;;
72319;SDS011;60269;52.502;16.732;2024-03-25T18:57:08;12.27;;;3.90;;
72319;SDS011;60269;52.502;16.732;2024-03-25T19:00:40;11.07;;;3.43;;
72319;SDS011;60269;52.502;16.732;2024-03-25T19:04:11;10.35;;;3.30;;
72319;SDS011;60269;52.502;16.732;2024-03-25T19:07:42;12.90;;;4.13;;
72319;SDS011;60269;52.502;16.732;2024-03-25T19:11:13;12.77;;;4.27;;
72319;SDS011;60269;52.502;16.732;2024-03-25T19:14:44;13.65;;;4.05;;
72319;SDS011;60269;52.502;16.732;2024-03-25T19:18:15;10.68;;;3.20;;
72319;SDS011;60269;52.502;16.732;2024-03-25T19:21:46;10.87;;;2.90;;
72319;SDS011;60269;52.502;16.732;2024-03-25T19:25:18;10.32;;;3.58;;
72319;SDS011;60269;52.502;16.732;2024-03-25T19:28:50;12.02;;;3.55;;
72319;SDS011;60269;52.502;16.732;2024-03-25T19:32:22;13.52;;;3.60;;
72319;SDS011;60269;52.502;16.732;2024-03-25T19:35:53;12.07;;;4.60;;
72319;SDS011;60269;52.502;16.732;2024-03-25T19:39:24;11.68;;;3.70;;
72319;SDS011;60269;52.502;16.732;2024-03-25T19:42:55;11.77;;;3.75;;
72319;SDS011;60269;52.502;16.732;2024-03-25T19:46:26;8.20;;;2.43;;
72319;SDS011;60269;52.502;16.732;2024-03-25T19:49:57;10.23;;;3.42;;
72319;SDS011;60269;52.502;16.732;2024-03-25T19:53:29;7.88;;;2.30;;
72319;SDS011;60269;52.502;16.732;2024-03-25T19:57:01;8.43;;;2.63;;
72319;SDS011;60269;52.502;16.732;2024-03-25T20:00:32;11.07;;;3.28;;
72319;SDS011;60269;52.502;16.732;2024-03-25T20:04:03;10.00;;;3.00;;
72319;SDS011;60269;52.502;16.732;2024-03-25T20:07:34;10.70;;;3.55;;
72319;SDS011;60269;52.502;16.732;2024-03-25T20:11:06;11.60;;;3.70;;
72319;SDS011;60269;52.502;16.732;2024-03-25T20:14:37;9.90;;;3.92;;
72319;SDS011;60269;52.502;16.732;2024-03-25T20:18:08;11.50;;;3.53;;
72319;SDS011;60269;52.502;16.732;2024-03-25T20:21:41;12.50;;;4.20;;
72319;SDS011;60269;52.502;16.732;2024-03-25T20:25:14;13.45;;;3.67;;
72319;SDS011;60269;52.502;16.732;2024-03-25T20:28:45;11.07;;;3.75;;
72319;SDS011;60269;52.502;16.732;2024-03-25T20:32:18;15.00;;;4.33;;
72319;SDS011;60269;52.502;16.732;2024-03-25T20:35:49;12.77;;;4.43;;
72319;SDS011;60269;52.502;16.732;2024-03-25T20:39:21;13.23;;;4.18;;
72319;SDS011;60269;52.502;16.732;2024-03-25T20:42:52;13.80;;;4.63;;
72319;SDS011;60269;52.502;16.732;2024-03-25T20:46:23;15.10;;;4.40;;
72319;SDS011;60269;52.502;16.732;2024-03-25T20:49:57;14.68;;;5.15;;
72319;SDS011;60269;52.502;16.732;2024-03-25T20:53:28;16.88;;;5.28;;